Time;durP1;ratioP1;P1;durP2;ratioP2;P2;SDS_P1;SDS_P2;PMS_P1;PMS_P2;Temp;Humidity;BMP_temperature;BMP_pressure;BME280_temperature;BME280_humidity;BME280_pressure;Samples;Min_cycle;Max_cycle;Signal;HPM_P1;HPM_P2
2022/05/08 05:04:48;;;;;;;18.65;12.40;;;15.40;99.90;;;;;;5048942;27;20537;-72
2022/05/08 05:07:39;;;;;;;22.75;13.40;;;15.20;99.90;;;;;;5059691;28;20223;-74
2022/05/08 05:10:28;;;;;;;23.00;12.95;;;15.30;99.90;;;;;;5069804;28;20319;-72
2022/05/08 05:13:17;;;;;;;19.00;12.57;;;15.20;99.90;;;;;;5066985;28;20224;-70
2022/05/08 05:16:06;;;;;;;21.45;13.20;;;15.30;99.90;;;;;;5074254;28;20235;-73
2022/05/08 05:18:59;;;;;;;18.88;13.30;;;15.40;99.90;;;;;;5070018;28;20251;-74
2022/05/08 05:21:49;;;;;;;19.42;13.20;;;15.50;99.90;;;;;;5070051;28;20310;-72
2022/05/08 05:24:38;;;;;;;19.40;13.30;;;15.60;99.90;;;;;;5064628;28;20577;-75
2022/05/08 05:27:27;;;;;;;21.63;13.32;;;15.70;99.90;;;;;;5064471;28;20223;-77
2022/05/08 05:30:16;;;;;;;20.85;13.85;;;15.70;99.90;;;;;;5081610;28;20299;-73
2022/05/08 05:33:05;;;;;;;21.83;13.55;;;15.80;99.90;;;;;;5073200;28;20204;-74
2022/05/08 05:35:54;;;;;;;20.58;15.45;;;15.90;99.90;;;;;;5079304;28;20652;-71
2022/05/08 05:38:44;;;;;;;21.92;14.60;;;15.90;99.90;;;;;;5072681;28;20224;-74
2022/05/08 05:41:33;;;;;;;17.48;13.63;;;16.10;99.90;;;;;;5072996;28;20220;-72
2022/05/08 05:44:26;;;;;;;21.25;15.00;;;16.20;99.90;;;;;;5063412;28;20244;-71
2022/05/08 05:50:23;;;;;;;22.65;14.25;;;16.20;99.90;;;;;;5069538;28;20235;-72
2022/05/08 05:53:11;;;;;;;22.50;14.13;;;16.30;99.90;;;;;;5087048;28;20371;-70
2022/05/08 05:56:02;;;;;;;17.85;14.52;;;16.40;99.90;;;;;;5067528;28;20240;-71
2022/05/08 05:58:50;;;;;;;24.73;14.45;;;16.40;99.90;;;;;;5037758;28;20232;-70
2022/05/08 06:01:39;;;;;;;19.17;12.98;;;16.50;99.90;;;;;;5068348;28;20693;-70
2022/05/08 06:04:28;;;;;;;22.17;13.52;;;16.70;99.90;;;;;;5068864;28;20229;-70
2022/05/08 06:07:17;;;;;;;29.70;13.45;;;16.90;99.90;;;;;;5055380;28;20216;-72
2022/05/08 06:10:08;;;;;;;19.45;12.85;;;17.30;99.90;;;;;;5071298;28;20242;-73
2022/05/08 06:12:58;;;;;;;17.95;12.75;;;17.30;99.90;;;;;;5060308;28;20853;-72
2022/05/08 06:15:47;;;;;;;16.27;12.45;;;17.30;99.90;;;;;;5061878;28;20707;-70
2022/05/08 06:18:35;;;;;;;17.00;12.35;;;17.10;99.90;;;;;;5058091;28;20959;-70
2022/05/08 06:21:24;;;;;;;21.73;12.70;;;17.30;99.90;;;;;;5058139;28;20228;-69
2022/05/08 06:24:12;;;;;;;17.40;12.90;;;17.40;99.90;;;;;;5064226;28;20227;-69
2022/05/08 06:27:01;;;;;;;18.98;11.95;;;17.90;99.90;;;;;;5039296;28;21106;-71
2022/05/08 06:29:51;;;;;;;17.75;11.55;;;18.60;99.90;;;;;;5059482;28;20235;-71
2022/05/08 06:32:40;;;;;;;12.52;10.88;;;18.80;99.90;;;;;;5070233;28;20239;-70
2022/05/08 06:35:48;;;;;;;11.40;9.05;;;18.80;99.90;;;;;;5057744;28;20535;-69
2022/05/08 06:38:37;;;;;;;12.50;8.32;;;18.80;99.90;;;;;;5056806;28;20569;-69
2022/05/08 06:41:26;;;;;;;11.35;8.18;;;18.80;99.90;;;;;;5066201;28;20232;-70
2022/05/08 06:44:15;;;;;;;12.80;8.57;;;18.80;99.90;;;;;;5054679;28;20225;-69
2022/05/08 06:47:05;;;;;;;9.85;7.88;;;18.90;99.90;;;;;;5058237;28;20254;-71
2022/05/08 06:49:54;;;;;;;12.50;7.70;;;19.00;99.90;;;;;;5063450;28;20212;-71
2022/05/08 06:52:43;;;;;;;11.10;7.18;;;19.30;99.90;;;;;;5065154;28;20216;-68
2022/05/08 06:55:31;;;;;;;9.23;7.13;;;19.90;99.90;;;;;;5053506;28;20692;-68
2022/05/08 06:58:21;;;;;;;7.50;5.95;;;20.00;99.90;;;;;;5056094;28;20216;-69
2022/05/08 07:04:19;;;;;;;9.25;5.13;;;20.30;99.90;;;;;;5053466;28;20410;-70
2022/05/08 07:07:08;;;;;;;6.30;4.90;;;19.50;99.90;;;;;;5058704;28;20224;-70
2022/05/08 07:09:57;;;;;;;6.45;4.80;;;19.80;99.90;;;;;;5054670;28;20219;-71
2022/05/08 07:12:46;;;;;;;9.05;5.40;;;19.90;99.90;;;;;;5052820;28;20335;-70
2022/05/08 07:15:36;;;;;;;7.70;5.72;;;19.80;99.90;;;;;;5054707;28;20648;-70
2022/05/08 07:18:45;;;;;;;9.55;6.05;;;19.60;99.90;;;;;;5053586;28;20973;-69
2022/05/08 07:21:35;;;;;;;8.38;6.18;;;20.50;99.90;;;;;;5053990;28;20231;-71
2022/05/08 07:24:23;;;;;;;8.82;5.80;;;20.80;99.90;;;;;;5052027;28;20236;-72
2022/05/08 07:27:12;;;;;;;8.82;5.95;;;20.60;99.90;;;;;;5051500;28;20224;-70
2022/05/08 07:30:01;;;;;;;8.27;5.35;;;20.30;99.90;;;;;;5049652;28;20233;-72
2022/05/08 07:32:51;;;;;;;9.85;5.55;;;20.20;99.90;;;;;;5050089;28;20225;-70
2022/05/08 07:38:48;;;;;;;7.55;5.40;;;19.70;99.90;;;;;;5070707;28;20228;-70
2022/05/08 07:41:36;;;;;;;7.15;4.50;;;19.60;99.90;;;;;;5054518;28;20278;-70
2022/05/08 07:44:25;;;;;;;6.55;5.20;;;19.40;99.90;;;;;;5045696;28;20227;-70
2022/05/08 07:47:14;;;;;;;7.03;5.65;;;19.30;99.90;;;;;;5067571;28;20315;-70
2022/05/08 07:50:03;;;;;;;10.30;5.85;;;19.40;99.90;;;;;;5050761;28;20344;-71
2022/05/08 07:52:53;;;;;;;8.93;5.93;;;18.90;99.90;;;;;;5051273;28;20221;-72
2022/05/08 07:55:45;;;;;;;9.48;5.90;;;18.50;99.90;;;;;;5048471;28;20785;-71
2022/05/08 07:58:34;;;;;;;5.72;5.10;;;18.80;99.90;;;;;;5053426;28;20316;-68
2022/05/08 08:01:29;;;;;;;8.25;6.50;;;18.90;99.90;;;;;;5048249;28;20220;-67
2022/05/08 08:04:38;;;;;;;8.43;6.00;;;18.90;99.90;;;;;;5052350;28;20243;-69
2022/05/08 08:07:28;;;;;;;6.88;6.05;;;18.90;99.90;;;;;;5057643;28;20323;-72
2022/05/08 08:10:17;;;;;;;9.40;5.72;;;19.00;99.90;;;;;;5053464;28;20723;-73
2022/05/08 08:13:07;;;;;;;8.40;6.40;;;19.10;99.90;;;;;;5051462;28;20624;-71
2022/05/08 08:15:56;;;;;;;7.47;5.85;;;19.20;99.90;;;;;;5060760;28;20315;-69
2022/05/08 08:18:49;;;;;;;8.80;6.63;;;19.20;99.90;;;;;;5048614;28;20299;-71
2022/05/08 08:21:37;;;;;;;11.40;7.18;;;19.20;99.90;;;;;;5056893;28;20632;-70
2022/05/08 08:24:27;;;;;;;9.40;6.88;;;19.10;99.90;;;;;;5066789;28;20233;-70
2022/05/08 08:27:19;;;;;;;8.80;6.78;;;19.10;99.90;;;;;;5048169;28;20225;-72
2022/05/08 08:30:10;;;;;;;10.48;7.40;;;19.20;99.90;;;;;;5052455;28;20216;-70
2022/05/08 08:32:59;;;;;;;7.82;6.75;;;19.30;99.90;;;;;;5053132;28;20231;-70
2022/05/08 08:35:47;;;;;;;13.60;7.35;;;19.40;99.90;;;;;;5053852;28;20217;-69
2022/05/08 08:38:37;;;;;;;7.28;6.57;;;19.60;99.90;;;;;;5052657;28;20275;-69
2022/05/08 08:41:29;;;;;;;8.73;6.43;;;19.30;99.90;;;;;;5053283;28;20220;-72
2022/05/08 08:47:45;;;;;;;9.73;6.30;;;20.70;99.90;;;;;;5058759;28;20242;-72
2022/05/08 08:50:34;;;;;;;10.60;6.57;;;20.60;99.90;;;;;;5062190;28;20229;-73
2022/05/08 10:19:45;;;;;;;6.63;4.90;;;20.70;99.90;;;;;;5036166;27;20728;-72
2022/05/08 10:25:21;;;;;;;6.47;4.88;;;20.60;99.90;;;;;;5072123;27;21125;-72
2022/05/08 10:28:09;;;;;;;9.63;4.70;;;20.30;99.90;;;;;;5066538;28;20228;-73
2022/05/08 10:31:38;;;;;;;6.28;4.53;;;20.40;99.90;;;;;;5077905;28;20216;-70
2022/05/08 10:34:32;;;;;;;6.57;4.32;;;20.50;99.90;;;;;;5060426;28;20994;-73
2022/05/08 10:37:29;;;;;;;6.90;4.40;;;20.60;99.90;;;;;;5051520;28;20235;-75
2022/05/08 10:40:39;;;;;;;6.82;4.13;;;20.50;99.90;;;;;;5059312;28;20241;-75
2022/05/08 10:43:32;;;;;;;7.88;3.70;;;20.40;99.90;;;;;;5074230;28;20232;-78
2022/05/08 10:46:25;;;;;;;4.68;3.25;;;20.30;99.90;;;;;;5090285;28;20666;-75
2022/05/08 10:49:14;;;;;;;6.68;3.00;;;20.10;99.90;;;;;;5071797;28;20601;-74
2022/05/08 10:52:08;;;;;;;5.05;3.22;;;20.00;99.90;;;;;;5059934;28;20277;-74
2022/05/08 10:54:57;;;;;;;5.30;2.85;;;19.80;99.70;;;;;;5061455;28;20227;-74
2022/05/08 10:57:51;;;;;;;6.35;3.30;;;19.70;99.90;;;;;;5068427;28;20220;-75
2022/05/08 11:00:40;;;;;;;5.05;3.10;;;19.90;99.70;;;;;;5079124;28;20226;-73
2022/05/08 11:03:30;;;;;;;5.82;3.30;;;20.10;99.40;;;;;;5058634;28;20240;-74
2022/05/08 11:06:22;;;;;;;8.32;3.67;;;20.30;99.10;;;;;;5056773;28;20224;-76
2022/05/08 11:09:11;;;;;;;6.20;3.60;;;20.70;97.70;;;;;;5058168;28;20231;-75
2022/05/08 11:12:06;;;;;;;6.15;3.33;;;22.10;96.40;;;;;;5049817;28;20231;-75
2022/05/08 11:15:09;;;;;;;5.35;3.50;;;24.40;90.40;;;;;;5058517;28;20216;-75
2022/05/08 11:18:09;;;;;;;6.43;3.28;;;25.00;80.50;;;;;;5069868;28;20219;-77
2022/05/08 11:20:59;;;;;;;5.13;3.20;;;25.00;80.40;;;;;;5074654;28;20299;-74
2022/05/08 11:23:48;;;;;;;5.32;3.22;;;25.90;72.90;;;;;;5077845;28;20232;-75
2022/05/08 11:26:37;;;;;;;5.00;3.65;;;25.60;71.10;;;;;;5093420;28;20294;-75
2022/05/08 11:29:26;;;;;;;6.15;3.20;;;24.80;72.80;;;;;;5078035;28;20731;-77
2022/05/08 11:38:28;;;;;;;5.88;3.67;;;28.50;69.40;;;;;;5056414;28;20577;-76
2022/05/08 11:41:20;;;;;;;6.55;4.13;;;29.60;61.70;;;;;;5064351;28;20708;-78
2022/05/08 11:44:23;;;;;;;5.65;3.55;;;28.50;61.70;;;;;;5067439;28;20284;-75
2022/05/08 11:47:13;;;;;;;3.55;2.95;;;28.50;61.20;;;;;;5062574;28;20612;-75
2022/05/08 11:50:07;;;;;;;4.03;3.17;;;27.40;61.10;;;;;;5065074;28;20249;-80
2022/05/08 11:53:03;;;;;;;4.10;3.17;;;28.50;61.00;;;;;;5057901;28;20214;-78
2022/05/08 11:55:52;;;;;;;5.25;3.40;;;28.90;59.80;;;;;;5060080;28;20224;-79
2022/05/08 11:58:40;;;;;;;7.15;3.08;;;29.90;58.00;;;;;;5077507;28;20215;-78
2022/05/08 12:01:31;;;;;;;3.25;2.85;;;30.80;55.60;;;;;;5060789;28;20219;-78
2022/05/08 12:04:27;;;;;;;5.15;3.10;;;32.30;55.10;;;;;;5062329;28;20220;-77
2022/05/08 12:07:18;;;;;;;5.45;3.08;;;32.60;53.20;;;;;;5060180;28;20256;-78
2022/05/08 12:10:07;;;;;;;6.00;2.92;;;33.50;51.60;;;;;;5063968;28;20223;-76
2022/05/08 12:13:05;;;;;;;7.18;3.28;;;32.90;50.60;;;;;;5058224;28;20219;-76
2022/05/08 12:16:11;;;;;;;4.40;2.90;;;31.40;52.90;;;;;;5063381;28;20266;-76
2022/05/08 12:19:18;;;;;;;3.03;2.42;;;33.70;50.60;;;;;;5063940;28;20820;-74
2022/05/08 12:22:19;;;;;;;4.47;2.55;;;35.10;47.70;;;;;;5067017;28;20222;-78
2022/05/08 12:25:08;;;;;;;5.13;2.38;;;34.00;47.30;;;;;;5060961;28;20238;-79
2022/05/08 12:27:57;;;;;;;3.63;2.47;;;34.50;47.90;;;;;;5076798;28;20534;-79
2022/05/08 12:30:46;;;;;;;2.97;2.38;;;32.10;48.00;;;;;;5063986;28;20227;-79
2022/05/08 12:33:35;;;;;;;4.45;2.25;;;29.80;50.30;;;;;;5065630;28;20579;-80
2022/05/08 12:36:23;;;;;;;6.75;2.75;;;28.20;53.00;;;;;;5063989;28;20222;-77
2022/05/08 12:39:13;;;;;;;5.28;2.53;;;27.20;54.50;;;;;;5061554;28;20228;-77
2022/05/08 12:42:02;;;;;;;5.72;2.80;;;26.50;56.70;;;;;;5061472;28;20231;-81
2022/05/08 12:44:54;;;;;;;4.85;2.60;;;26.00;56.90;;;;;;5066177;28;22372;-79
2022/05/08 12:47:42;;;;;;;4.22;2.55;;;25.60;57.20;;;;;;5059625;28;20227;-79
2022/05/08 12:50:31;;;;;;;5.50;2.50;;;25.10;59.20;;;;;;5066678;28;20216;-80
2022/05/08 12:53:19;;;;;;;6.32;2.67;;;25.10;59.50;;;;;;5082445;28;20223;-81
2022/05/08 12:56:10;;;;;;;5.28;2.72;;;24.60;60.10;;;;;;5063221;28;20232;-80
2022/05/08 13:02:06;;;;;;;3.67;2.20;;;24.30;61.20;;;;;;5061867;28;20221;-81
2022/05/08 13:04:55;;;;;;;5.03;2.53;;;24.40;61.20;;;;;;5066222;28;20565;-82
2022/05/08 13:07:44;;;;;;;3.90;2.40;;;24.30;62.10;;;;;;5068458;28;20228;-84
2022/05/08 13:10:35;;;;;;;4.43;2.75;;;23.50;62.40;;;;;;5050633;28;20219;-84
2022/05/08 13:13:25;;;;;;;4.00;2.17;;;23.40;64.20;;;;;;5076283;28;20220;-85
2022/05/08 13:16:15;;;;;;;2.92;2.15;;;23.40;64.70;;;;;;5067106;28;20243;-86
2022/05/08 13:19:04;;;;;;;4.47;2.40;;;23.50;64.40;;;;;;5070717;28;20556;-86
2022/05/08 13:21:57;;;;;;;4.28;2.90;;;23.60;64.40;;;;;;5057785;28;20208;-86
2022/05/08 13:24:48;;;;;;;4.10;2.35;;;23.30;64.60;;;;;;5071909;28;20231;-85
2022/05/08 13:27:36;;;;;;;4.85;2.78;;;23.10;64.80;;;;;;5059229;28;20227;-86
2022/05/08 13:30:27;;;;;;;2.97;2.65;;;23.00;65.00;;;;;;5056159;28;20235;-84
2022/05/08 13:33:18;;;;;;;2.72;2.35;;;23.30;64.80;;;;;;5053063;28;20220;-84
2022/05/08 13:36:10;;;;;;;4.18;2.40;;;23.50;64.40;;;;;;5065621;28;20716;-84
2022/05/08 13:38:58;;;;;;;6.22;2.58;;;23.40;64.80;;;;;;5080731;28;20223;-85
2022/05/08 13:41:48;;;;;;;9.32;2.90;;;23.10;65.00;;;;;;5061449;28;20230;-85
2022/05/08 13:44:37;;;;;;;8.40;2.70;;;22.90;65.70;;;;;;5065298;28;20219;-84
2022/05/08 13:47:27;;;;;;;4.47;2.65;;;22.40;66.50;;;;;;5070889;28;20306;-85
2022/05/08 13:50:16;;;;;;;6.03;2.75;;;22.20;67.20;;;;;;5071718;28;20239;-85
2022/05/08 13:53:08;;;;;;;5.10;2.47;;;22.20;67.20;;;;;;5079682;28;20311;-84
2022/05/08 13:55:58;;;;;;;4.38;2.42;;;22.00;67.70;;;;;;5058319;28;20240;-82
2022/05/08 13:58:46;;;;;;;5.07;2.75;;;22.30;68.40;;;;;;5086219;28;20746;-84
2022/05/08 14:01:35;;;;;;;3.55;2.80;;;22.40;68.60;;;;;;5086146;28;20266;-85
2022/05/08 14:04:25;;;;;;;4.32;2.60;;;22.30;68.00;;;;;;5052453;28;20305;-84
2022/05/08 14:07:15;;;;;;;6.63;2.60;;;22.20;68.50;;;;;;5089197;28;20212;-83
2022/05/08 14:10:07;;;;;;;3.13;2.50;;;22.00;68.10;;;;;;5063073;28;20211;-85
2022/05/08 14:12:56;;;;;;;3.85;2.67;;;21.90;68.80;;;;;;5053994;28;20208;-84
2022/05/08 14:15:45;;;;;;;8.35;5.20;;;22.00;69.00;;;;;;5061759;28;20215;-85
2022/05/08 14:18:35;;;;;;;5.38;2.85;;;22.10;68.90;;;;;;5060312;28;20235;-84
2022/05/08 14:21:26;;;;;;;5.30;3.10;;;22.00;69.10;;;;;;5057722;28;20335;-85
2022/05/08 14:24:15;;;;;;;5.82;2.60;;;22.20;68.80;;;;;;5064512;28;20237;-83
2022/05/08 14:27:06;;;;;;;3.92;2.60;;;22.30;68.50;;;;;;5025497;28;20228;-78
2022/05/08 14:29:58;;;;;;;6.47;2.22;;;22.20;68.30;;;;;;5038456;28;20819;-77
2022/05/08 14:36:04;;;;;;;4.47;2.95;;;21.60;69.90;;;;;;5048788;28;20232;-82
2022/05/08 14:38:54;;;;;;;5.00;3.03;;;21.70;69.80;;;;;;5055572;28;20224;-79
2022/05/08 14:41:45;;;;;;;4.60;3.10;;;21.70;70.20;;;;;;5053704;28;20229;-79
2022/05/08 14:44:34;;;;;;;4.85;2.70;;;21.70;69.60;;;;;;5052181;28;20225;-79
2022/05/08 14:47:23;;;;;;;6.00;2.33;;;21.60;69.60;;;;;;5043899;28;20232;-80
2022/05/08 14:50:11;;;;;;;5.00;2.25;;;21.70;69.70;;;;;;5054511;28;20217;-77
2022/05/08 14:53:02;;;;;;;6.63;2.67;;;21.50;69.60;;;;;;5044711;28;20222;-77
2022/05/08 14:55:52;;;;;;;3.65;2.38;;;21.80;69.60;;;;;;5052239;28;20213;-84
2022/05/08 14:58:41;;;;;;;4.47;2.58;;;21.60;69.40;;;;;;5066167;28;20362;-92
2022/05/08 15:01:31;;;;;;;3.25;2.45;;;21.60;69.50;;;;;;5050266;28;20236;-92
2022/05/08 15:04:21;;;;;;;3.38;2.30;;;21.70;68.90;;;;;;5074305;28;20244;-90
2022/05/08 15:07:16;;;;;;;6.60;2.20;;;21.60;69.60;;;;;;5074325;28;20227;-90
2022/05/08 15:10:06;;;;;;;4.63;2.58;;;21.40;71.20;;;;;;5075373;28;20212;-96
2022/05/08 15:13:02;;;;;;;3.88;2.03;;;21.60;70.50;;;;;;5072359;28;20308;-95
2022/05/08 15:15:51;;;;;;;4.85;2.13;;;21.60;70.70;;;;;;5078356;28;20914;-94
2022/05/08 15:18:52;;;;;;;3.58;2.00;;;21.50;70.10;;;;;;5074911;28;20243;-93
2022/05/08 15:21:43;;;;;;;2.50;2.10;;;21.50;69.60;;;;;;5047184;28;20300;-83
2022/05/08 15:24:33;;;;;;;2.67;1.95;;;21.30;70.00;;;;;;5039766;28;20228;-82
2022/05/08 15:27:22;;;;;;;3.88;2.00;;;21.10;70.70;;;;;;5036054;28;20750;-82
2022/05/08 15:30:13;;;;;;;3.25;1.70;;;21.10;70.50;;;;;;5040589;28;20209;-82
2022/05/08 15:33:02;;;;;;;5.30;2.42;;;21.10;70.50;;;;;;5065445;28;20228;-83
2022/05/08 15:35:51;;;;;;;2.47;1.98;;;21.10;69.40;;;;;;5065117;28;20240;-84
2022/05/08 15:38:40;;;;;;;5.68;1.90;;;21.10;70.00;;;;;;5066236;28;20221;-82
2022/05/08 15:41:29;;;;;;;3.08;2.08;;;20.90;70.40;;;;;;5053648;28;20236;-82
2022/05/08 15:44:18;;;;;;;3.15;1.80;;;20.90;69.40;;;;;;5055314;28;20612;-83
2022/05/08 15:47:10;;;;;;;6.13;2.10;;;20.80;69.40;;;;;;5053113;28;20228;-82
2022/05/08 15:50:01;;;;;;;2.58;1.60;;;21.00;69.10;;;;;;5035744;28;20295;-83
2022/05/08 15:52:52;;;;;;;1.85;1.50;;;21.00;68.70;;;;;;5033990;28;20216;-83
2022/05/08 15:55:42;;;;;;;6.97;1.98;;;20.90;68.80;;;;;;5060339;28;20223;-83
2022/05/08 15:58:31;;;;;;;3.88;1.67;;;20.80;69.50;;;;;;5065007;28;20225;-83
2022/05/08 16:01:19;;;;;;;3.13;1.92;;;20.90;69.40;;;;;;5032765;28;20304;-83
2022/05/08 16:04:10;;;;;;;3.95;1.80;;;20.90;69.50;;;;;;5050351;28;20229;-83
2022/05/08 16:06:58;;;;;;;3.78;1.70;;;20.80;68.40;;;;;;5047411;28;20243;-81
2022/05/08 16:09:47;;;;;;;3.28;1.70;;;20.50;68.00;;;;;;5035776;28;20229;-76
2022/05/08 16:25:12;;;;;;;4.78;2.30;;;20.20;70.50;;;;;;5043080;28;20229;-77
2022/05/08 16:28:01;;;;;;;3.00;2.22;;;20.30;70.20;;;;;;5054537;28;20314;-76
2022/05/08 16:30:50;;;;;;;3.78;2.33;;;20.20;70.30;;;;;;5041753;28;20216;-76
2022/05/08 16:33:39;;;;;;;5.78;2.10;;;20.20;70.80;;;;;;5043264;28;20713;-77
2022/05/08 16:36:28;;;;;;;6.47;2.72;;;19.90;71.30;;;;;;5047128;28;20230;-76
2022/05/08 16:39:19;;;;;;;4.03;2.60;;;20.10;71.60;;;;;;5046810;28;20237;-78
2022/05/08 16:42:09;;;;;;;4.28;2.47;;;20.00;72.00;;;;;;5049416;28;20225;-78
2022/05/08 16:44:58;;;;;;;3.88;2.10;;;19.40;72.50;;;;;;5070198;28;20232;-77
2022/05/08 16:47:49;;;;;;;5.28;2.20;;;19.30;73.20;;;;;;5049364;28;20224;-77
2022/05/08 16:50:37;;;;;;;4.00;2.50;;;19.50;73.10;;;;;;5038224;28;20231;-77
2022/05/08 16:53:27;;;;;;;3.22;2.20;;;19.50;73.20;;;;;;5048402;28;20449;-78
2022/05/08 16:56:17;;;;;;;4.07;2.35;;;19.30;72.90;;;;;;5050891;28;20224;-75
2022/05/08 16:59:06;;;;;;;5.15;2.40;;;19.20;73.10;;;;;;5057786;28;20228;-74
2022/05/08 17:01:55;;;;;;;2.88;2.40;;;19.30;72.80;;;;;;5030077;28;20229;-74
2022/05/08 17:04:44;;;;;;;6.20;2.40;;;19.20;72.60;;;;;;5032634;28;20229;-77
2022/05/08 17:07:33;;;;;;;4.05;2.30;;;19.30;72.40;;;;;;5037833;28;20709;-75
2022/05/08 17:10:24;;;;;;;4.47;2.20;;;19.30;72.30;;;;;;5040795;28;20216;-77
2022/05/08 17:13:15;;;;;;;5.35;2.60;;;19.10;72.10;;;;;;5061564;28;20244;-79
2022/05/08 17:16:03;;;;;;;5.35;2.20;;;19.00;72.80;;;;;;5049337;28;20212;-78
2022/05/08 17:18:52;;;;;;;40.72;4.05;;;19.00;73.10;;;;;;5032306;28;20595;-79
2022/05/08 17:21:43;;;;;;;8.32;2.47;;;19.10;73.40;;;;;;5048327;28;20332;-79
2022/05/08 17:24:32;;;;;;;5.45;2.50;;;19.00;73.50;;;;;;5054749;28;20231;-79
2022/05/08 17:30:36;;;;;;;8.38;3.00;;;19.00;73.50;;;;;;5060523;28;20223;-76
2022/05/08 17:33:29;;;;;;;4.38;2.33;;;19.00;74.40;;;;;;5073355;28;20228;-73
2022/05/08 17:36:19;;;;;;;4.38;2.45;;;19.00;73.40;;;;;;5104206;28;20231;-87
2022/05/08 17:39:08;;;;;;;16.90;2.70;;;19.10;73.80;;;;;;5064951;28;20254;-88
2022/05/08 17:42:02;;;;;;;3.80;2.53;;;19.10;73.50;;;;;;5077395;28;20212;-88
2022/05/08 17:44:51;;;;;;;5.82;2.47;;;19.00;73.70;;;;;;5108068;28;20212;-87
2022/05/08 17:47:48;;;;;;;5.10;2.05;;;19.00;73.00;;;;;;5082362;28;20227;-90
2022/05/08 17:50:38;;;;;;;5.50;2.35;;;18.90;72.70;;;;;;5081262;28;20223;-80
2022/05/08 17:53:28;;;;;;;2.83;2.20;;;18.80;72.40;;;;;;5090296;28;20301;-86
2022/05/08 17:56:17;;;;;;;3.10;2.17;;;18.90;72.00;;;;;;5065658;28;20230;-88
2022/05/08 17:59:05;;;;;;;6.03;2.30;;;18.80;72.50;;;;;;5062093;28;20227;-86
2022/05/08 18:05:53;;;;;;;5.38;2.50;;;18.80;72.50;;;;;;5058869;28;20219;-85
2022/05/08 18:08:14;;;;;;;7.30;2.60;;;18.80;73.20;;;;;;5059956;28;20672;-86
2022/05/08 18:11:03;;;;;;;8.02;2.72;;;18.80;73.50;;;;;;5069802;28;20713;-84
2022/05/08 18:13:54;;;;;;;4.35;2.70;;;18.70;74.10;;;;;;5079602;28;20208;-84
2022/05/08 18:16:42;;;;;;;6.45;2.85;;;18.70;74.10;;;;;;5059657;28;20599;-85
2022/05/08 18:19:31;;;;;;;6.32;3.00;;;18.70;74.10;;;;;;5054914;28;20677;-84
2022/05/08 18:22:21;;;;;;;4.95;2.65;;;18.50;74.40;;;;;;5070229;28;20231;-85
2022/05/08 18:25:11;;;;;;;3.63;2.72;;;18.60;74.60;;;;;;5062417;28;20215;-84
2022/05/08 18:28:00;;;;;;;3.45;2.58;;;18.50;74.80;;;;;;5079766;28;20211;-85
2022/05/08 18:30:49;;;;;;;4.22;2.88;;;18.50;75.20;;;;;;5054560;28;20784;-83
2022/05/08 18:33:41;;;;;;;8.15;2.97;;;18.40;76.40;;;;;;5051353;28;20221;-85
2022/05/08 18:36:33;;;;;;;11.80;2.90;;;18.30;76.90;;;;;;5054257;28;20258;-85
2022/05/08 18:39:24;;;;;;;4.15;3.03;;;18.30;77.00;;;;;;5055462;28;20235;-85
2022/05/08 18:42:14;;;;;;;4.80;3.53;;;18.30;76.80;;;;;;5070932;28;20506;-85
2022/05/08 18:45:02;;;;;;;5.93;3.17;;;18.20;77.60;;;;;;5059803;28;20216;-85
2022/05/08 18:47:52;;;;;;;6.78;2.92;;;18.20;77.80;;;;;;5059149;28;20223;-86
2022/05/08 18:50:41;;;;;;;5.20;3.38;;;18.10;78.30;;;;;;5089770;28;20216;-85
2022/05/08 18:53:36;;;;;;;4.70;3.35;;;18.10;78.20;;;;;;5065524;28;20226;-85
2022/05/08 18:56:29;;;;;;;4.65;3.33;;;18.10;78.50;;;;;;5089803;28;20227;-85
2022/05/08 18:59:23;;;;;;;5.70;3.40;;;18.00;79.10;;;;;;5072881;28;20234;-85
2022/05/08 19:02:12;;;;;;;4.65;3.20;;;17.90;79.40;;;;;;5062305;28;20300;-86
2022/05/08 19:05:08;;;;;;;7.82;3.30;;;17.90;80.10;;;;;;5064487;28;20228;-84
2022/05/08 19:08:00;;;;;;;8.32;4.03;;;17.80;80.40;;;;;;5060292;28;20574;-84
2022/05/08 19:10:48;;;;;;;6.93;3.42;;;17.80;80.50;;;;;;5093191;28;20267;-84
2022/05/08 19:13:39;;;;;;;6.22;3.83;;;17.80;80.60;;;;;;5075968;28;20222;-84
2022/05/08 19:16:34;;;;;;;6.88;3.83;;;17.70;81.20;;;;;;5093442;28;20230;-84
2022/05/08 19:19:25;;;;;;;5.78;3.40;;;17.80;81.30;;;;;;5074489;28;20227;-85
2022/05/08 19:22:15;;;;;;;10.48;4.68;;;17.70;82.10;;;;;;5062806;28;20637;-86
2022/05/08 19:25:04;;;;;;;6.55;3.88;;;17.70;82.50;;;;;;5067212;28;20223;-84
2022/05/08 19:27:53;;;;;;;6.50;3.80;;;17.70;82.40;;;;;;5081288;28;20269;-86
2022/05/08 19:30:43;;;;;;;6.90;3.30;;;17.80;81.70;;;;;;5061436;28;20224;-86
2022/05/08 19:39:45;;;;;;;7.55;3.50;;;17.30;78.40;;;;;;5054730;28;20216;-85
2022/05/08 19:42:35;;;;;;;6.07;3.83;;;17.20;78.20;;;;;;5092842;28;20792;-85
2022/05/08 19:45:26;;;;;;;10.15;3.60;;;17.10;78.60;;;;;;5063332;28;20623;-84
2022/05/08 19:48:24;;;;;;;8.35;3.55;;;16.80;77.10;;;;;;5086911;28;20216;-84
2022/05/08 19:51:13;;;;;;;10.20;3.60;;;16.70;76.70;;;;;;5086385;28;20287;-85
2022/05/08 19:54:02;;;;;;;9.50;3.70;;;16.60;76.80;;;;;;5073049;28;20759;-85
2022/05/08 19:56:53;;;;;;;7.32;3.33;;;16.60;76.40;;;;;;5058781;28;20259;-85
2022/05/08 19:59:45;;;;;;;6.43;3.30;;;16.40;75.50;;;;;;5084072;28;21163;-87
2022/05/08 20:02:37;;;;;;;7.40;3.17;;;16.30;75.60;;;;;;5040716;28;20242;-78
2022/05/08 20:05:28;;;;;;;5.57;2.80;;;16.30;76.60;;;;;;5057958;28;20290;-79
2022/05/08 20:08:17;;;;;;;9.52;3.63;;;16.20;75.30;;;;;;5075154;28;20220;-78
2022/05/08 20:11:07;;;;;;;7.47;3.90;;;16.20;75.20;;;;;;5062174;28;20224;-80
2022/05/08 20:13:55;;;;;;;7.35;3.42;;;16.10;74.90;;;;;;5063303;28;20224;-78
2022/05/08 20:16:45;;;;;;;10.30;3.55;;;16.20;74.60;;;;;;5064127;28;20228;-78
2022/05/08 20:19:34;;;;;;;10.75;3.35;;;16.00;74.40;;;;;;5078242;28;20725;-77
2022/05/08 20:22:23;;;;;;;7.90;3.53;;;15.90;74.20;;;;;;5053028;28;20850;-78
2022/05/08 20:25:12;;;;;;;5.60;2.90;;;15.80;74.00;;;;;;5043227;28;21046;-78
2022/05/08 20:28:01;;;;;;;12.18;3.65;;;15.70;74.00;;;;;;5041921;28;20231;-80
2022/05/08 20:30:50;;;;;;;11.15;3.30;;;15.80;74.20;;;;;;5046591;28;20227;-79
2022/05/08 20:33:40;;;;;;;10.07;3.30;;;15.70;74.20;;;;;;5041408;28;20228;-79
2022/05/08 20:36:28;;;;;;;11.35;3.20;;;15.70;74.00;;;;;;5023268;28;20251;-75
2022/05/08 20:39:21;;;;;;;9.57;3.97;;;15.70;73.70;;;;;;5033789;28;20228;-75
2022/05/08 20:42:11;;;;;;;9.77;3.40;;;15.80;73.90;;;;;;5038055;28;20240;-74
2022/05/08 20:45:00;;;;;;;8.35;3.42;;;15.70;73.80;;;;;;5022674;28;20224;-75
2022/05/08 20:47:48;;;;;;;9.25;3.70;;;15.60;73.70;;;;;;5028684;28;20598;-74
2022/05/08 20:50:37;;;;;;;9.68;3.20;;;15.40;73.30;;;;;;5037962;28;20247;-73
2022/05/08 20:53:26;;;;;;;7.57;3.00;;;15.60;73.70;;;;;;5036624;28;20241;-73
2022/05/08 20:56:16;;;;;;;10.63;3.67;;;15.50;73.70;;;;;;5033689;28;20217;-74
2022/05/08 20:59:05;;;;;;;9.25;3.28;;;15.40;73.10;;;;;;5031343;28;21025;-73
2022/05/08 21:01:54;;;;;;;9.43;3.15;;;15.40;73.00;;;;;;5038735;28;20698;-74
2022/05/08 21:04:43;;;;;;;7.50;3.17;;;15.40;72.80;;;;;;5023685;28;20221;-74
2022/05/08 21:10:37;;;;;;;6.60;3.20;;;15.30;72.80;;;;;;5042048;28;20233;-73
2022/05/08 21:13:27;;;;;;;6.88;3.08;;;15.20;72.90;;;;;;5024317;28;22165;-74
2022/05/08 21:16:16;;;;;;;8.73;3.45;;;15.10;72.50;;;;;;5042333;28;20310;-74
2022/05/08 21:19:06;;;;;;;9.27;3.60;;;15.10;72.50;;;;;;5019082;28;20220;-74
2022/05/08 21:21:55;;;;;;;7.38;4.45;;;15.10;72.50;;;;;;5042901;28;20359;-73
2022/05/08 21:24:44;;;;;;;15.40;3.65;;;15.00;72.20;;;;;;5027205;28;20229;-74
2022/05/08 21:27:33;;;;;;;6.38;3.28;;;14.90;73.10;;;;;;5026620;28;20303;-75
2022/05/08 21:30:25;;;;;;;9.80;3.40;;;14.90;72.60;;;;;;5050598;28;20252;-74
2022/05/08 21:33:14;;;;;;;7.65;3.72;;;14.90;72.50;;;;;;5051169;28;20213;-75
2022/05/08 21:36:03;;;;;;;10.60;3.83;;;14.80;72.50;;;;;;5042024;28;20801;-73
2022/05/08 21:38:52;;;;;;;9.00;3.00;;;14.70;71.90;;;;;;5038545;28;20213;-74
2022/05/08 21:41:40;;;;;;;6.55;3.38;;;14.80;72.00;;;;;;5037804;28;20221;-75
2022/05/08 21:44:35;;;;;;;9.02;3.70;;;14.70;71.90;;;;;;5048980;28;20717;-74
2022/05/08 21:47:25;;;;;;;8.02;3.70;;;14.60;72.10;;;;;;5037706;28;20220;-74
2022/05/08 21:50:14;;;;;;;7.38;3.75;;;14.50;72.60;;;;;;5032898;28;20747;-74
2022/05/08 21:53:02;;;;;;;7.45;3.65;;;14.50;73.10;;;;;;5041134;28;20220;-74
2022/05/08 21:55:53;;;;;;;7.45;3.58;;;14.50;73.70;;;;;;5041059;28;20232;-74
2022/05/08 21:58:42;;;;;;;8.35;3.65;;;14.40;73.70;;;;;;5042780;28;20217;-73
2022/05/08 22:01:31;;;;;;;10.77;3.30;;;14.30;74.20;;;;;;5042256;28;20221;-74
2022/05/08 22:04:22;;;;;;;5.32;3.33;;;14.30;74.70;;;;;;5054297;28;20228;-74
2022/05/08 22:07:12;;;;;;;9.90;3.50;;;14.20;74.70;;;;;;5033514;28;20464;-74
2022/05/08 22:10:01;;;;;;;8.52;3.67;;;14.10;75.30;;;;;;5039314;28;20233;-74